sensor_id;sensor_type;location;lat;lon;timestamp;P1;durP1;ratioP1;P2;durP2;ratioP2
65572;SDS011;52214;50.940;13.996;2022-08-30T00:03:01;7.75;;;4.55;;
65572;SDS011;52214;50.940;13.996;2022-08-30T00:05:45;10.00;;;4.82;;
65572;SDS011;52214;50.940;13.996;2022-08-30T00:08:34;9.33;;;5.17;;
65572;SDS011;52214;50.940;13.996;2022-08-30T00:11:21;11.82;;;4.95;;
65572;SDS011;52214;50.940;13.996;2022-08-30T00:14:05;9.85;;;5.03;;
65572;SDS011;52214;50.940;13.996;2022-08-30T00:16:51;9.60;;;5.10;;
65572;SDS011;52214;50.940;13.996;2022-08-30T00:19:35;10.05;;;5.07;;
65572;SDS011;52214;50.940;13.996;2022-08-30T00:22:20;12.37;;;5.60;;
65572;SDS011;52214;50.940;13.996;2022-08-30T00:25:04;11.55;;;4.68;;
65572;SDS011;52214;50.940;13.996;2022-08-30T00:27:48;8.65;;;4.35;;
65572;SDS011;52214;50.940;13.996;2022-08-30T00:30:34;10.73;;;5.28;;
65572;SDS011;52214;50.940;13.996;2022-08-30T00:33:18;8.27;;;4.78;;
65572;SDS011;52214;50.940;13.996;2022-08-30T00:36:02;10.43;;;4.97;;
65572;SDS011;52214;50.940;13.996;2022-08-30T00:38:28;8.85;;;5.00;;
65572;SDS011;52214;50.940;13.996;2022-08-30T00:40:53;11.80;;;4.93;;
65572;SDS011;52214;50.940;13.996;2022-08-30T00:43:21;8.93;;;5.10;;
65572;SDS011;52214;50.940;13.996;2022-08-30T00:45:49;10.23;;;4.78;;
65572;SDS011;52214;50.940;13.996;2022-08-30T00:48:15;12.40;;;5.37;;
65572;SDS011;52214;50.940;13.996;2022-08-30T00:50:43;9.75;;;4.82;;
65572;SDS011;52214;50.940;13.996;2022-08-30T00:53:12;12.18;;;5.07;;
65572;SDS011;52214;50.940;13.996;2022-08-30T00:55:41;11.80;;;5.10;;
65572;SDS011;52214;50.940;13.996;2022-08-30T00:58:09;9.90;;;4.75;;
65572;SDS011;52214;50.940;13.996;2022-08-30T01:00:40;9.02;;;4.63;;
65572;SDS011;52214;50.940;13.996;2022-08-30T01:03:06;10.82;;;5.30;;
65572;SDS011;52214;50.940;13.996;2022-08-30T01:05:34;9.75;;;5.65;;
65572;SDS011;52214;50.940;13.996;2022-08-30T01:08:02;9.73;;;5.17;;
65572;SDS011;52214;50.940;13.996;2022-08-30T01:10:28;10.60;;;5.05;;
65572;SDS011;52214;50.940;13.996;2022-08-30T01:12:54;9.98;;;5.40;;
65572;SDS011;52214;50.940;13.996;2022-08-30T01:15:20;11.47;;;5.37;;
65572;SDS011;52214;50.940;13.996;2022-08-30T01:17:46;10.00;;;5.15;;
65572;SDS011;52214;50.940;13.996;2022-08-30T01:20:14;7.80;;;4.50;;
65572;SDS011;52214;50.940;13.996;2022-08-30T01:25:21;9.07;;;5.10;;
65572;SDS011;52214;50.940;13.996;2022-08-30T01:27:54;9.85;;;4.93;;
65572;SDS011;52214;50.940;13.996;2022-08-30T01:30:22;9.97;;;5.23;;
65572;SDS011;52214;50.940;13.996;2022-08-30T01:32:49;9.95;;;5.40;;
65572;SDS011;52214;50.940;13.996;2022-08-30T01:35:17;10.05;;;4.55;;
65572;SDS011;52214;50.940;13.996;2022-08-30T01:37:43;10.13;;;4.93;;
65572;SDS011;52214;50.940;13.996;2022-08-30T01:40:10;9.93;;;4.80;;
65572;SDS011;52214;50.940;13.996;2022-08-30T01:42:37;8.90;;;4.90;;
65572;SDS011;52214;50.940;13.996;2022-08-30T01:45:03;10.32;;;4.30;;
65572;SDS011;52214;50.940;13.996;2022-08-30T01:47:30;8.90;;;4.82;;
65572;SDS011;52214;50.940;13.996;2022-08-30T01:49:55;8.43;;;4.83;;
65572;SDS011;52214;50.940;13.996;2022-08-30T01:52:22;8.05;;;4.53;;
65572;SDS011;52214;50.940;13.996;2022-08-30T01:54:49;8.57;;;4.90;;
65572;SDS011;52214;50.940;13.996;2022-08-30T01:57:16;9.20;;;5.03;;
65572;SDS011;52214;50.940;13.996;2022-08-30T01:59:45;9.98;;;4.70;;
65572;SDS011;52214;50.940;13.996;2022-08-30T02:02:16;8.82;;;4.75;;
65572;SDS011;52214;50.940;13.996;2022-08-30T02:04:44;18.38;;;5.30;;
65572;SDS011;52214;50.940;13.996;2022-08-30T02:07:09;43.50;;;5.57;;
65572;SDS011;52214;50.940;13.996;2022-08-30T02:09:36;31.02;;;6.45;;
65572;SDS011;52214;50.940;13.996;2022-08-30T02:12:02;57.92;;;7.43;;
65572;SDS011;52214;50.940;13.996;2022-08-30T02:14:31;51.53;;;7.20;;
65572;SDS011;52214;50.940;13.996;2022-08-30T02:16:57;43.25;;;7.88;;
65572;SDS011;52214;50.940;13.996;2022-08-30T02:19:23;52.30;;;8.05;;
65572;SDS011;52214;50.940;13.996;2022-08-30T02:21:48;50.23;;;6.07;;
65572;SDS011;52214;50.940;13.996;2022-08-30T02:24:14;49.13;;;7.47;;
65572;SDS011;52214;50.940;13.996;2022-08-30T02:26:40;34.78;;;5.93;;
65572;SDS011;52214;50.940;13.996;2022-08-30T02:29:06;37.08;;;6.07;;
65572;SDS011;52214;50.940;13.996;2022-08-30T02:31:32;22.50;;;5.67;;
65572;SDS011;52214;50.940;13.996;2022-08-30T02:33:58;33.67;;;6.28;;
65572;SDS011;52214;50.940;13.996;2022-08-30T02:36:24;37.53;;;6.60;;
65572;SDS011;52214;50.940;13.996;2022-08-30T02:38:50;38.25;;;6.00;;
65572;SDS011;52214;50.940;13.996;2022-08-30T02:41:16;12.07;;;5.20;;
65572;SDS011;52214;50.940;13.996;2022-08-30T02:43:42;8.13;;;5.15;;
65572;SDS011;52214;50.940;13.996;2022-08-30T02:46:08;12.60;;;5.20;;
65572;SDS011;52214;50.940;13.996;2022-08-30T02:48:34;25.47;;;5.83;;
65572;SDS011;52214;50.940;13.996;2022-08-30T02:51:03;31.50;;;5.90;;
65572;SDS011;52214;50.940;13.996;2022-08-30T02:53:34;10.67;;;5.33;;
65572;SDS011;52214;50.940;13.996;2022-08-30T02:56:00;15.15;;;5.82;;
65572;SDS011;52214;50.940;13.996;2022-08-30T02:58:25;11.48;;;5.22;;
65572;SDS011;52214;50.940;13.996;2022-08-30T03:00:51;24.90;;;6.07;;
65572;SDS011;52214;50.940;13.996;2022-08-30T03:03:16;27.27;;;7.23;;
65572;SDS011;52214;50.940;13.996;2022-08-30T03:05:42;11.50;;;5.40;;
65572;SDS011;52214;50.940;13.996;2022-08-30T03:08:08;37.15;;;7.05;;
65572;SDS011;52214;50.940;13.996;2022-08-30T03:10:34;16.95;;;5.13;;
65572;SDS011;52214;50.940;13.996;2022-08-30T03:13:00;16.27;;;5.97;;
65572;SDS011;52214;50.940;13.996;2022-08-30T03:15:26;19.40;;;6.25;;
65572;SDS011;52214;50.940;13.996;2022-08-30T03:17:52;23.70;;;5.97;;
65572;SDS011;52214;50.940;13.996;2022-08-30T03:20:19;31.27;;;5.95;;
65572;SDS011;52214;50.940;13.996;2022-08-30T03:22:46;24.80;;;6.20;;
65572;SDS011;52214;50.940;13.996;2022-08-30T03:25:12;17.92;;;4.97;;
65572;SDS011;52214;50.940;13.996;2022-08-30T03:27:37;11.40;;;5.30;;
65572;SDS011;52214;50.940;13.996;2022-08-30T03:30:03;10.00;;;5.38;;
65572;SDS011;52214;50.940;13.996;2022-08-30T03:32:30;11.25;;;5.57;;
65572;SDS011;52214;50.940;13.996;2022-08-30T03:34:56;13.13;;;6.20;;
65572;SDS011;52214;50.940;13.996;2022-08-30T03:37:21;10.90;;;6.32;;
65572;SDS011;52214;50.940;13.996;2022-08-30T03:39:47;14.10;;;6.37;;
65572;SDS011;52214;50.940;13.996;2022-08-30T03:42:12;12.60;;;6.17;;
65572;SDS011;52214;50.940;13.996;2022-08-30T03:44:39;12.57;;;5.93;;
65572;SDS011;52214;50.940;13.996;2022-08-30T03:47:04;10.73;;;6.10;;
65572;SDS011;52214;50.940;13.996;2022-08-30T03:49:31;14.13;;;5.70;;
65572;SDS011;52214;50.940;13.996;2022-08-30T03:51:57;15.80;;;5.20;;
65572;SDS011;52214;50.940;13.996;2022-08-30T03:54:22;12.30;;;5.40;;
65572;SDS011;52214;50.940;13.996;2022-08-30T03:56:47;12.77;;;4.80;;
65572;SDS011;52214;50.940;13.996;2022-08-30T03:59:13;19.15;;;5.00;;
65572;SDS011;52214;50.940;13.996;2022-08-30T04:01:39;40.20;;;5.37;;
65572;SDS011;52214;50.940;13.996;2022-08-30T04:04:06;52.40;;;6.25;;
65572;SDS011;52214;50.940;13.996;2022-08-30T04:06:32;43.90;;;6.13;;
65572;SDS011;52214;50.940;13.996;2022-08-30T04:08:57;23.27;;;4.63;;
65572;SDS011;52214;50.940;13.996;2022-08-30T04:11:23;23.30;;;4.97;;
65572;SDS011;52214;50.940;13.996;2022-08-30T04:13:49;20.30;;;5.10;;
65572;SDS011;52214;50.940;13.996;2022-08-30T04:16:17;24.90;;;5.10;;
65572;SDS011;52214;50.940;13.996;2022-08-30T04:18:44;32.25;;;6.13;;
65572;SDS011;52214;50.940;13.996;2022-08-30T04:21:09;35.10;;;5.97;;
65572;SDS011;52214;50.940;13.996;2022-08-30T04:23:35;29.33;;;5.47;;
65572;SDS011;52214;50.940;13.996;2022-08-30T04:26:00;28.17;;;5.60;;
65572;SDS011;52214;50.940;13.996;2022-08-30T04:28:26;11.07;;;4.97;;
65572;SDS011;52214;50.940;13.996;2022-08-30T04:30:52;17.23;;;5.30;;
65572;SDS011;52214;50.940;13.996;2022-08-30T04:33:17;34.43;;;5.60;;
65572;SDS011;52214;50.940;13.996;2022-08-30T04:35:44;21.80;;;6.47;;
65572;SDS011;52214;50.940;13.996;2022-08-30T04:38:11;18.17;;;5.00;;
65572;SDS011;52214;50.940;13.996;2022-08-30T04:40:39;23.75;;;5.10;;
65572;SDS011;52214;50.940;13.996;2022-08-30T04:43:06;29.77;;;6.43;;
65572;SDS011;52214;50.940;13.996;2022-08-30T04:45:31;18.03;;;5.80;;
65572;SDS011;52214;50.940;13.996;2022-08-30T04:47:57;12.07;;;5.47;;
65572;SDS011;52214;50.940;13.996;2022-08-30T04:50:22;12.80;;;5.53;;
65572;SDS011;52214;50.940;13.996;2022-08-30T04:52:48;20.67;;;6.17;;
65572;SDS011;52214;50.940;13.996;2022-08-30T04:55:14;25.87;;;6.00;;
65572;SDS011;52214;50.940;13.996;2022-08-30T04:57:40;35.88;;;8.00;;
65572;SDS011;52214;50.940;13.996;2022-08-30T05:00:07;27.05;;;5.72;;
65572;SDS011;52214;50.940;13.996;2022-08-30T05:02:35;42.63;;;5.83;;
65572;SDS011;52214;50.940;13.996;2022-08-30T05:05:02;18.67;;;5.15;;
65572;SDS011;52214;50.940;13.996;2022-08-30T05:07:46;41.65;;;4.95;;
65572;SDS011;52214;50.940;13.996;2022-08-30T05:10:12;114.17;;;8.03;;
65572;SDS011;52214;50.940;13.996;2022-08-30T05:12:38;58.95;;;6.55;;
65572;SDS011;52214;50.940;13.996;2022-08-30T05:15:04;40.47;;;5.70;;
65572;SDS011;52214;50.940;13.996;2022-08-30T05:17:30;35.28;;;6.22;;
65572;SDS011;52214;50.940;13.996;2022-08-30T05:19:55;92.63;;;7.00;;
65572;SDS011;52214;50.940;13.996;2022-08-30T05:22:21;14.43;;;5.00;;
65572;SDS011;52214;50.940;13.996;2022-08-30T05:24:46;56.50;;;6.57;;
65572;SDS011;52214;50.940;13.996;2022-08-30T05:27:13;28.50;;;4.97;;
65572;SDS011;52214;50.940;13.996;2022-08-30T05:29:38;43.40;;;5.93;;
65572;SDS011;52214;50.940;13.996;2022-08-30T05:32:04;147.43;;;10.90;;
65572;SDS011;52214;50.940;13.996;2022-08-30T05:34:29;94.83;;;7.40;;
65572;SDS011;52214;50.940;13.996;2022-08-30T05:36:55;100.13;;;7.93;;
65572;SDS011;52214;50.940;13.996;2022-08-30T05:39:20;54.10;;;6.30;;
65572;SDS011;52214;50.940;13.996;2022-08-30T05:41:46;142.32;;;8.75;;
65572;SDS011;52214;50.940;13.996;2022-08-30T05:44:12;70.40;;;6.67;;
65572;SDS011;52214;50.940;13.996;2022-08-30T05:46:37;121.55;;;7.18;;
65572;SDS011;52214;50.940;13.996;2022-08-30T05:49:04;79.83;;;6.83;;
65572;SDS011;52214;50.940;13.996;2022-08-30T05:51:32;110.55;;;8.00;;
65572;SDS011;52214;50.940;13.996;2022-08-30T05:53:59;116.80;;;7.93;;
65572;SDS011;52214;50.940;13.996;2022-08-30T05:56:26;181.13;;;11.85;;
65572;SDS011;52214;50.940;13.996;2022-08-30T05:58:54;210.95;;;11.60;;
65572;SDS011;52214;50.940;13.996;2022-08-30T06:01:26;148.77;;;11.02;;
65572;SDS011;52214;50.940;13.996;2022-08-30T06:03:56;172.97;;;10.40;;
65572;SDS011;52214;50.940;13.996;2022-08-30T06:06:22;110.80;;;8.55;;
65572;SDS011;52214;50.940;13.996;2022-08-30T06:08:48;105.05;;;7.38;;
65572;SDS011;52214;50.940;13.996;2022-08-30T06:11:15;146.55;;;9.18;;
65572;SDS011;52214;50.940;13.996;2022-08-30T06:13:44;146.45;;;9.98;;
65572;SDS011;52214;50.940;13.996;2022-08-30T06:16:11;38.23;;;6.83;;
65572;SDS011;52214;50.940;13.996;2022-08-30T06:18:38;48.47;;;5.88;;
65572;SDS011;52214;50.940;13.996;2022-08-30T06:21:04;17.42;;;5.00;;
65572;SDS011;52214;50.940;13.996;2022-08-30T06:23:30;20.63;;;4.73;;
65572;SDS011;52214;50.940;13.996;2022-08-30T06:25:55;10.52;;;5.18;;
65572;SDS011;52214;50.940;13.996;2022-08-30T06:28:21;8.33;;;4.70;;
65572;SDS011;52214;50.940;13.996;2022-08-30T06:30:47;8.65;;;5.10;;
65572;SDS011;52214;50.940;13.996;2022-08-30T06:33:12;8.57;;;4.87;;
65572;SDS011;52214;50.940;13.996;2022-08-30T06:35:38;8.87;;;5.57;;
65572;SDS011;52214;50.940;13.996;2022-08-30T06:38:03;12.38;;;6.40;;
65572;SDS011;52214;50.940;13.996;2022-08-30T06:40:29;12.40;;;6.83;;
65572;SDS011;52214;50.940;13.996;2022-08-30T06:42:54;12.38;;;6.97;;
65572;SDS011;52214;50.940;13.996;2022-08-30T06:45:20;10.95;;;5.65;;
65572;SDS011;52214;50.940;13.996;2022-08-30T06:47:47;10.32;;;6.65;;
65572;SDS011;52214;50.940;13.996;2022-08-30T06:50:13;11.30;;;6.97;;
65572;SDS011;52214;50.940;13.996;2022-08-30T06:52:41;12.75;;;7.20;;
65572;SDS011;52214;50.940;13.996;2022-08-30T06:55:09;13.80;;;6.80;;
65572;SDS011;52214;50.940;13.996;2022-08-30T06:57:39;11.82;;;6.53;;
65572;SDS011;52214;50.940;13.996;2022-08-30T07:00:07;13.27;;;6.73;;
65572;SDS011;52214;50.940;13.996;2022-08-30T07:02:35;13.13;;;7.03;;
65572;SDS011;52214;50.940;13.996;2022-08-30T07:05:02;11.00;;;6.35;;
65572;SDS011;52214;50.940;13.996;2022-08-30T07:07:28;12.07;;;6.47;;
65572;SDS011;52214;50.940;13.996;2022-08-30T07:09:54;11.17;;;6.40;;
65572;SDS011;52214;50.940;13.996;2022-08-30T07:12:20;11.55;;;6.35;;
65572;SDS011;52214;50.940;13.996;2022-08-30T07:14:46;11.57;;;6.50;;
65572;SDS011;52214;50.940;13.996;2022-08-30T07:17:12;11.32;;;6.50;;
65572;SDS011;52214;50.940;13.996;2022-08-30T07:19:56;10.77;;;5.97;;
65572;SDS011;52214;50.940;13.996;2022-08-30T07:22:22;13.27;;;6.45;;
65572;SDS011;52214;50.940;13.996;2022-08-30T07:24:47;9.88;;;6.20;;
65572;SDS011;52214;50.940;13.996;2022-08-30T07:27:13;11.20;;;6.17;;
65572;SDS011;52214;50.940;13.996;2022-08-30T07:29:39;10.30;;;5.95;;
65572;SDS011;52214;50.940;13.996;2022-08-30T07:32:05;10.97;;;6.13;;
65572;SDS011;52214;50.940;13.996;2022-08-30T07:34:30;10.02;;;5.13;;
65572;SDS011;52214;50.940;13.996;2022-08-30T07:36:56;8.03;;;5.03;;
65572;SDS011;52214;50.940;13.996;2022-08-30T07:39:21;8.53;;;4.90;;
65572;SDS011;52214;50.940;13.996;2022-08-30T07:41:47;9.93;;;4.95;;
65572;SDS011;52214;50.940;13.996;2022-08-30T07:44:13;9.35;;;4.60;;
65572;SDS011;52214;50.940;13.996;2022-08-30T07:46:39;10.03;;;5.37;;
65572;SDS011;52214;50.940;13.996;2022-08-30T07:49:05;8.95;;;4.60;;
65572;SDS011;52214;50.940;13.996;2022-08-30T07:51:32;7.40;;;4.15;;
65572;SDS011;52214;50.940;13.996;2022-08-30T07:53:57;8.37;;;4.47;;
65572;SDS011;52214;50.940;13.996;2022-08-30T07:56:24;9.05;;;4.53;;
65572;SDS011;52214;50.940;13.996;2022-08-30T07:58:50;8.48;;;4.75;;
65572;SDS011;52214;50.940;13.996;2022-08-30T08:01:18;8.13;;;4.10;;
65572;SDS011;52214;50.940;13.996;2022-08-30T08:03:44;9.48;;;4.47;;
65572;SDS011;52214;50.940;13.996;2022-08-30T08:06:11;10.57;;;5.05;;
65572;SDS011;52214;50.940;13.996;2022-08-30T08:08:39;9.55;;;4.43;;
65572;SDS011;52214;50.940;13.996;2022-08-30T08:11:06;6.22;;;3.85;;
65572;SDS011;52214;50.940;13.996;2022-08-30T08:13:51;10.45;;;4.18;;
65572;SDS011;52214;50.940;13.996;2022-08-30T08:16:17;7.55;;;3.70;;
65572;SDS011;52214;50.940;13.996;2022-08-30T08:18:43;8.35;;;4.18;;
65572;SDS011;52214;50.940;13.996;2022-08-30T08:21:09;6.60;;;4.23;;
65572;SDS011;52214;50.940;13.996;2022-08-30T08:23:35;8.63;;;4.07;;
65572;SDS011;52214;50.940;13.996;2022-08-30T08:26:01;6.82;;;4.13;;
65572;SDS011;52214;50.940;13.996;2022-08-30T08:28:28;7.20;;;4.05;;
65572;SDS011;52214;50.940;13.996;2022-08-30T08:30:53;10.53;;;4.30;;
65572;SDS011;52214;50.940;13.996;2022-08-30T08:33:19;13.23;;;4.30;;
65572;SDS011;52214;50.940;13.996;2022-08-30T08:35:45;10.73;;;4.57;;
65572;SDS011;52214;50.940;13.996;2022-08-30T08:38:10;8.57;;;4.10;;
65572;SDS011;52214;50.940;13.996;2022-08-30T08:43:28;8.77;;;4.15;;
65572;SDS011;52214;50.940;13.996;2022-08-30T08:46:00;7.17;;;3.83;;
65572;SDS011;52214;50.940;13.996;2022-08-30T08:48:43;7.55;;;4.05;;
65572;SDS011;52214;50.940;13.996;2022-08-30T08:51:18;6.97;;;3.78;;
65572;SDS011;52214;50.940;13.996;2022-08-30T08:54:12;8.93;;;3.78;;
65572;SDS011;52214;50.940;13.996;2022-08-30T08:56:43;5.97;;;3.65;;
65572;SDS011;52214;50.940;13.996;2022-08-30T08:59:09;6.67;;;3.43;;
65572;SDS011;52214;50.940;13.996;2022-08-30T09:01:36;7.45;;;3.72;;
65572;SDS011;52214;50.940;13.996;2022-08-30T09:04:10;5.73;;;3.70;;
65572;SDS011;52214;50.940;13.996;2022-08-30T09:09:36;8.13;;;3.78;;
65572;SDS011;52214;50.940;13.996;2022-08-30T09:12:05;6.10;;;3.60;;
65572;SDS011;52214;50.940;13.996;2022-08-30T09:14:42;5.10;;;3.20;;
65572;SDS011;52214;50.940;13.996;2022-08-30T09:17:11;5.67;;;3.20;;
65572;SDS011;52214;50.940;13.996;2022-08-30T09:20:12;6.85;;;3.67;;
65572;SDS011;52214;50.940;13.996;2022-08-30T09:25:04;6.35;;;3.20;;
65572;SDS011;52214;50.940;13.996;2022-08-30T09:27:35;5.88;;;3.22;;
65572;SDS011;52214;50.940;13.996;2022-08-30T09:33:17;8.10;;;3.78;;
65572;SDS011;52214;50.940;13.996;2022-08-30T09:35:45;5.65;;;3.17;;
65572;SDS011;52214;50.940;13.996;2022-08-30T09:38:20;6.07;;;3.63;;
65572;SDS011;52214;50.940;13.996;2022-08-30T09:40:52;8.23;;;3.95;;
65572;SDS011;52214;50.940;13.996;2022-08-30T09:45:48;6.38;;;3.40;;
65572;SDS011;52214;50.940;13.996;2022-08-30T10:01:41;5.88;;;2.97;;
65572;SDS011;52214;50.940;13.996;2022-08-30T10:04:16;4.53;;;2.58;;
65572;SDS011;52214;50.940;13.996;2022-08-30T10:06:57;5.97;;;3.13;;
65572;SDS011;52214;50.940;13.996;2022-08-30T10:09:31;5.53;;;2.77;;
65572;SDS011;52214;50.940;13.996;2022-08-30T10:12:14;6.15;;;2.72;;
65572;SDS011;52214;50.940;13.996;2022-08-30T10:14:58;5.10;;;2.65;;
65572;SDS011;52214;50.940;13.996;2022-08-30T10:20:57;5.57;;;2.70;;
65572;SDS011;52214;50.940;13.996;2022-08-30T10:23:49;5.00;;;2.63;;
65572;SDS011;52214;50.940;13.996;2022-08-30T10:26:42;8.68;;;2.83;;
65572;SDS011;52214;50.940;13.996;2022-08-30T10:29:32;4.70;;;2.50;;
65572;SDS011;52214;50.940;13.996;2022-08-30T10:32:19;5.00;;;2.40;;
65572;SDS011;52214;50.940;13.996;2022-08-30T10:35:09;4.80;;;2.35;;
65572;SDS011;52214;50.940;13.996;2022-08-30T10:38:02;5.80;;;2.60;;
65572;SDS011;52214;50.940;13.996;2022-08-30T10:40:49;6.88;;;2.42;;
65572;SDS011;52214;50.940;13.996;2022-08-30T10:49:14;5.45;;;2.40;;
65572;SDS011;52214;50.940;13.996;2022-08-30T10:52:21;5.63;;;2.70;;
65572;SDS011;52214;50.940;13.996;2022-08-30T10:57:50;5.72;;;2.50;;
65572;SDS011;52214;50.940;13.996;2022-08-30T11:06:18;5.80;;;2.30;;
65572;SDS011;52214;50.940;13.996;2022-08-30T11:15:13;4.38;;;2.20;;
65572;SDS011;52214;50.940;13.996;2022-08-30T11:18:02;4.32;;;2.30;;
65572;SDS011;52214;50.940;13.996;2022-08-30T11:20:48;6.30;;;2.20;;
65572;SDS011;52214;50.940;13.996;2022-08-30T11:23:33;5.15;;;2.10;;
65572;SDS011;52214;50.940;13.996;2022-08-30T11:26:49;3.97;;;2.03;;
65572;SDS011;52214;50.940;13.996;2022-08-30T11:32:24;4.47;;;2.05;;
65572;SDS011;52214;50.940;13.996;2022-08-30T11:36:00;5.70;;;2.00;;
65572;SDS011;52214;50.940;13.996;2022-08-30T11:41:33;4.00;;;2.15;;
65572;SDS011;52214;50.940;13.996;2022-08-30T11:47:52;4.28;;;2.00;;
65572;SDS011;52214;50.940;13.996;2022-08-30T11:50:11;4.67;;;2.03;;
65572;SDS011;52214;50.940;13.996;2022-08-30T11:56:04;4.80;;;2.10;;
65572;SDS011;52214;50.940;13.996;2022-08-30T11:58:51;5.75;;;2.35;;
65572;SDS011;52214;50.940;13.996;2022-08-30T12:01:37;5.55;;;2.08;;
65572;SDS011;52214;50.940;13.996;2022-08-30T12:07:09;4.30;;;1.90;;
65572;SDS011;52214;50.940;13.996;2022-08-30T12:15:24;4.95;;;2.33;;
65572;SDS011;52214;50.940;13.996;2022-08-30T12:18:09;3.70;;;1.93;;
65572;SDS011;52214;50.940;13.996;2022-08-30T12:20:58;3.70;;;2.00;;
65572;SDS011;52214;50.940;13.996;2022-08-30T12:23:51;4.53;;;2.15;;
65572;SDS011;52214;50.940;13.996;2022-08-30T12:26:37;4.60;;;2.03;;
65572;SDS011;52214;50.940;13.996;2022-08-30T12:32:16;5.43;;;2.20;;
65572;SDS011;52214;50.940;13.996;2022-08-30T12:35:02;3.70;;;2.05;;
65572;SDS011;52214;50.940;13.996;2022-08-30T12:38:20;4.78;;;2.40;;
65572;SDS011;52214;50.940;13.996;2022-08-30T12:40:59;4.35;;;1.90;;
65572;SDS011;52214;50.940;13.996;2022-08-30T12:43:47;3.53;;;1.75;;
65572;SDS011;52214;50.940;13.996;2022-08-30T12:46:33;3.50;;;2.00;;
65572;SDS011;52214;50.940;13.996;2022-08-30T12:49:18;4.28;;;1.85;;
65572;SDS011;52214;50.940;13.996;2022-08-30T12:52:16;4.70;;;2.30;;
65572;SDS011;52214;50.940;13.996;2022-08-30T12:55:06;5.47;;;2.00;;
65572;SDS011;52214;50.940;13.996;2022-08-30T12:58:03;3.95;;;2.10;;
65572;SDS011;52214;50.940;13.996;2022-08-30T13:00:47;4.00;;;1.80;;
65572;SDS011;52214;50.940;13.996;2022-08-30T13:03:32;3.90;;;2.08;;
65572;SDS011;52214;50.940;13.996;2022-08-30T13:06:33;4.00;;;2.50;;
65572;SDS011;52214;50.940;13.996;2022-08-30T13:09:21;3.72;;;2.22;;
65572;SDS011;52214;50.940;13.996;2022-08-30T13:12:07;6.78;;;2.72;;
65572;SDS011;52214;50.940;13.996;2022-08-30T13:14:52;5.83;;;2.80;;
65572;SDS011;52214;50.940;13.996;2022-08-30T13:17:37;5.15;;;2.47;;
65572;SDS011;52214;50.940;13.996;2022-08-30T13:20:22;4.68;;;2.65;;
65572;SDS011;52214;50.940;13.996;2022-08-30T13:23:08;6.00;;;2.80;;
65572;SDS011;52214;50.940;13.996;2022-08-30T13:25:53;4.95;;;2.75;;
65572;SDS011;52214;50.940;13.996;2022-08-30T13:28:50;5.50;;;2.50;;
65572;SDS011;52214;50.940;13.996;2022-08-30T13:31:35;4.28;;;2.20;;
65572;SDS011;52214;50.940;13.996;2022-08-30T13:34:18;6.07;;;2.50;;
65572;SDS011;52214;50.940;13.996;2022-08-30T13:37:03;6.55;;;2.67;;
65572;SDS011;52214;50.940;13.996;2022-08-30T13:39:47;5.53;;;2.83;;
65572;SDS011;52214;50.940;13.996;2022-08-30T13:42:31;6.83;;;2.73;;
65572;SDS011;52214;50.940;13.996;2022-08-30T13:45:16;4.40;;;2.38;;
65572;SDS011;52214;50.940;13.996;2022-08-30T13:48:01;7.63;;;2.75;;
65572;SDS011;52214;50.940;13.996;2022-08-30T13:50:45;5.25;;;2.60;;
65572;SDS011;52214;50.940;13.996;2022-08-30T13:53:29;4.35;;;2.30;;
65572;SDS011;52214;50.940;13.996;2022-08-30T13:56:13;5.10;;;2.67;;
65572;SDS011;52214;50.940;13.996;2022-08-30T13:58:58;4.80;;;2.70;;
65572;SDS011;52214;50.940;13.996;2022-08-30T14:01:42;5.05;;;2.50;;
65572;SDS011;52214;50.940;13.996;2022-08-30T14:04:27;5.13;;;2.60;;
65572;SDS011;52214;50.940;13.996;2022-08-30T14:07:11;5.75;;;2.70;;
65572;SDS011;52214;50.940;13.996;2022-08-30T14:09:55;5.13;;;2.93;;
65572;SDS011;52214;50.940;13.996;2022-08-30T14:12:39;3.70;;;2.25;;
65572;SDS011;52214;50.940;13.996;2022-08-30T14:15:23;7.60;;;2.67;;
65572;SDS011;52214;50.940;13.996;2022-08-30T14:18:08;4.40;;;2.60;;
65572;SDS011;52214;50.940;13.996;2022-08-30T14:20:52;4.18;;;2.30;;
65572;SDS011;52214;50.940;13.996;2022-08-30T14:23:36;4.47;;;2.60;;
65572;SDS011;52214;50.940;13.996;2022-08-30T14:26:27;4.70;;;2.42;;
65572;SDS011;52214;50.940;13.996;2022-08-30T14:29:16;4.00;;;2.40;;
65572;SDS011;52214;50.940;13.996;2022-08-30T14:32:00;6.30;;;2.47;;
65572;SDS011;52214;50.940;13.996;2022-08-30T14:34:44;4.40;;;2.22;;
65572;SDS011;52214;50.940;13.996;2022-08-30T14:37:29;4.13;;;2.20;;
65572;SDS011;52214;50.940;13.996;2022-08-30T14:40:13;4.88;;;2.20;;
65572;SDS011;52214;50.940;13.996;2022-08-30T14:42:57;3.70;;;2.35;;
65572;SDS011;52214;50.940;13.996;2022-08-30T14:45:41;4.72;;;2.30;;
65572;SDS011;52214;50.940;13.996;2022-08-30T14:48:25;5.93;;;2.40;;
65572;SDS011;52214;50.940;13.996;2022-08-30T14:51:10;4.20;;;2.60;;
65572;SDS011;52214;50.940;13.996;2022-08-30T14:53:55;4.03;;;2.10;;
65572;SDS011;52214;50.940;13.996;2022-08-30T14:56:39;4.65;;;2.33;;
65572;SDS011;52214;50.940;13.996;2022-08-30T14:59:24;4.35;;;2.20;;
65572;SDS011;52214;50.940;13.996;2022-08-30T15:02:08;6.25;;;2.38;;
65572;SDS011;52214;50.940;13.996;2022-08-30T15:04:52;4.20;;;2.07;;
65572;SDS011;52214;50.940;13.996;2022-08-30T15:07:36;5.22;;;2.63;;
65572;SDS011;52214;50.940;13.996;2022-08-30T15:10:20;4.32;;;2.40;;
65572;SDS011;52214;50.940;13.996;2022-08-30T15:13:04;4.95;;;2.40;;
65572;SDS011;52214;50.940;13.996;2022-08-30T15:15:49;5.03;;;2.30;;
65572;SDS011;52214;50.940;13.996;2022-08-30T15:18:33;3.57;;;2.00;;
65572;SDS011;52214;50.940;13.996;2022-08-30T15:21:21;3.80;;;2.28;;
65572;SDS011;52214;50.940;13.996;2022-08-30T15:24:06;4.55;;;2.42;;
65572;SDS011;52214;50.940;13.996;2022-08-30T15:26:50;3.92;;;2.30;;
65572;SDS011;52214;50.940;13.996;2022-08-30T15:29:35;7.40;;;2.50;;
65572;SDS011;52214;50.940;13.996;2022-08-30T15:32:19;5.10;;;2.20;;
65572;SDS011;52214;50.940;13.996;2022-08-30T15:35:03;4.30;;;2.20;;
65572;SDS011;52214;50.940;13.996;2022-08-30T15:37:47;4.13;;;2.20;;
65572;SDS011;52214;50.940;13.996;2022-08-30T15:40:31;4.65;;;2.10;;
65572;SDS011;52214;50.940;13.996;2022-08-30T15:43:16;5.88;;;2.40;;
65572;SDS011;52214;50.940;13.996;2022-08-30T15:46:33;5.10;;;2.30;;
65572;SDS011;52214;50.940;13.996;2022-08-30T15:49:11;5.25;;;2.42;;
65572;SDS011;52214;50.940;13.996;2022-08-30T15:51:59;4.57;;;2.20;;
65572;SDS011;52214;50.940;13.996;2022-08-30T15:54:43;4.03;;;2.10;;
65572;SDS011;52214;50.940;13.996;2022-08-30T15:57:27;4.38;;;2.40;;
65572;SDS011;52214;50.940;13.996;2022-08-30T16:00:12;4.10;;;2.13;;
65572;SDS011;52214;50.940;13.996;2022-08-30T16:02:56;5.55;;;2.40;;
65572;SDS011;52214;50.940;13.996;2022-08-30T16:05:40;4.07;;;2.20;;
65572;SDS011;52214;50.940;13.996;2022-08-30T16:08:25;4.53;;;2.08;;
65572;SDS011;52214;50.940;13.996;2022-08-30T16:11:10;3.95;;;2.17;;
65572;SDS011;52214;50.940;13.996;2022-08-30T16:13:56;4.73;;;2.50;;
65572;SDS011;52214;50.940;13.996;2022-08-30T16:16:40;4.95;;;2.65;;
65572;SDS011;52214;50.940;13.996;2022-08-30T16:19:25;7.65;;;2.58;;
65572;SDS011;52214;50.940;13.996;2022-08-30T16:22:09;4.88;;;2.15;;
65572;SDS011;52214;50.940;13.996;2022-08-30T16:24:54;4.60;;;2.50;;
65572;SDS011;52214;50.940;13.996;2022-08-30T16:27:38;5.47;;;2.53;;
65572;SDS011;52214;50.940;13.996;2022-08-30T16:30:22;5.80;;;2.50;;